createdAt,value
2018-08-17T00:04:30.916Z,60.50
2018-08-17T00:09:33.918Z,61.40
2018-08-17T00:14:36.983Z,61.40
2018-08-17T00:19:40.008Z,61.30
2018-08-17T00:24:43.569Z,61.40
2018-08-17T00:29:46.636Z,62.10
2018-08-17T00:34:49.731Z,62.60
2018-08-17T00:39:52.713Z,63.50
2018-08-17T00:44:55.874Z,63.70
2018-08-17T00:49:58.895Z,64.10
2018-08-17T00:55:01.913Z,63.70
2018-08-17T01:00:05.616Z,64.30
2018-08-17T01:05:08.724Z,65.30
2018-08-17T01:10:11.740Z,65.90
2018-08-17T01:15:14.777Z,65.90
2018-08-17T01:20:17.777Z,66.00
2018-08-17T01:25:20.731Z,66.20
2018-08-17T01:30:23.937Z,65.90
2018-08-17T01:35:27.101Z,66.40
2018-08-17T01:40:30.071Z,65.60
2018-08-17T01:45:33.046Z,66.10
2018-08-17T01:50:36.094Z,66.00
2018-08-17T01:55:39.123Z,65.60
2018-08-17T02:00:42.112Z,66.00
2018-08-17T02:05:45.056Z,66.60
2018-08-17T02:10:48.034Z,67.20
2018-08-17T02:15:51.264Z,67.30
2018-08-17T02:20:54.239Z,69.30
2018-08-17T02:25:57.219Z,69.90
2018-08-17T02:31:00.203Z,68.70
2018-08-17T02:36:03.199Z,69.20
2018-08-17T02:41:06.407Z,69.10
2018-08-17T02:46:09.395Z,69.00
2018-08-17T02:51:12.308Z,68.50
2018-08-17T02:56:15.285Z,67.90
2018-08-17T03:01:18.184Z,67.50
2018-08-17T03:06:21.160Z,68.20
2018-08-17T03:11:24.166Z,68.40
2018-08-17T03:16:27.154Z,68.70
2018-08-17T03:21:30.114Z,69.40
2018-08-17T03:26:33.092Z,69.10
2018-08-17T03:31:36.062Z,69.80
2018-08-17T03:36:39.041Z,69.60
2018-08-17T03:41:42.010Z,69.00
2018-08-17T03:46:44.956Z,68.30
2018-08-17T03:51:47.895Z,68.10
2018-08-17T03:56:50.836Z,68.30
2018-08-17T04:01:53.795Z,67.90
2018-08-17T04:06:56.817Z,67.40
2018-08-17T04:11:59.803Z,67.20
2018-08-17T04:17:02.781Z,67.50
2018-08-17T04:22:05.829Z,67.80
2018-08-17T04:27:08.781Z,67.90
2018-08-17T04:32:11.782Z,67.50
2018-08-17T04:37:14.823Z,67.50
2018-08-17T04:42:17.803Z,67.20
2018-08-17T04:47:20.747Z,67.70
2018-08-17T04:52:23.730Z,67.30
2018-08-17T04:57:26.739Z,69.10
2018-08-17T05:02:29.884Z,69.80
2018-08-17T05:07:32.884Z,69.30
2018-08-17T05:12:35.975Z,67.40
2018-08-17T05:17:38.946Z,63.60
2018-08-17T05:22:41.932Z,57.70
2018-08-17T05:27:44.909Z,57.10
2018-08-17T05:32:47.900Z,56.30
2018-08-17T05:37:51.067Z,52.60
2018-08-17T05:42:54.045Z,49.50
2018-08-17T05:47:57.070Z,45.70
2018-08-17T05:53:00.462Z,45.20
2018-08-17T05:58:03.452Z,42.40
2018-08-17T06:03:06.530Z,41.90
2018-08-17T06:08:09.510Z,40.40
2018-08-17T06:13:12.429Z,41.60
2018-08-17T06:18:15.425Z,41.50
2018-08-17T06:23:18.424Z,42.60
2018-08-17T06:28:21.448Z,43.80
2018-08-17T06:33:24.481Z,39.40
2018-08-17T06:38:27.484Z,38.40
2018-08-17T06:43:30.492Z,37.90
2018-08-17T06:48:33.496Z,38.30
2018-08-17T06:53:36.535Z,40.20
2018-08-17T06:58:39.600Z,43.90
2018-08-17T07:03:42.611Z,43.70
2018-08-17T07:08:45.729Z,44.00
2018-08-17T07:13:48.663Z,45.10
2018-08-17T07:18:52.720Z,44.70
2018-08-17T07:23:56.051Z,41.90
2018-08-17T07:28:59.025Z,43.80
2018-08-17T07:34:02.021Z,44.30
2018-08-17T07:39:07.117Z,44.30
2018-08-17T07:44:10.156Z,46.00
2018-08-17T07:49:13.108Z,46.70
2018-08-17T07:54:16.119Z,47.60
2018-08-17T07:59:19.076Z,47.70
2018-08-17T08:04:22.098Z,48.70
2018-08-17T08:09:25.135Z,50.80
2018-08-17T08:14:28.183Z,51.80
2018-08-17T08:19:31.283Z,50.80
2018-08-17T08:24:38.550Z,51.30
2018-08-17T08:29:41.580Z,51.20
2018-08-17T08:34:44.580Z,49.50
2018-08-17T08:39:47.607Z,50.10
2018-08-17T08:44:50.505Z,48.90
2018-08-17T08:49:53.616Z,49.50
2018-08-17T08:54:56.647Z,47.90
2018-08-17T08:59:59.699Z,46.30
2018-08-17T09:05:02.816Z,45.80
2018-08-17T09:10:07.866Z,46.70
2018-08-17T09:15:11.675Z,47.60
2018-08-17T09:20:15.858Z,45.80
2018-08-17T09:25:18.826Z,46.70
2018-08-17T09:30:22.984Z,45.60
2018-08-17T09:35:25.881Z,44.80
2018-08-17T09:40:28.952Z,45.30
2018-08-17T09:45:31.903Z,45.40
2018-08-17T09:50:36.517Z,47.40
2018-08-17T09:55:39.548Z,46.10
2018-08-17T10:00:48.104Z,45.60
2018-08-17T10:05:56.938Z,46.00
2018-08-17T10:11:00.256Z,45.20
2018-08-17T10:16:03.219Z,42.20
2018-08-17T10:21:06.317Z,42.40
2018-08-17T10:26:09.167Z,43.40
2018-08-17T10:31:15.572Z,42.50
2018-08-17T10:36:18.560Z,42.20
2018-08-17T10:41:21.578Z,42.00
2018-08-17T10:46:24.551Z,42.80
2018-08-17T10:51:27.590Z,42.20
2018-08-17T10:56:30.753Z,41.10
2018-08-17T11:01:33.737Z,40.80
2018-08-17T11:06:36.708Z,42.20
2018-08-17T11:11:41.335Z,42.00
2018-08-17T11:16:44.373Z,43.30
2018-08-17T11:21:47.332Z,42.20
2018-08-17T11:26:50.320Z,41.10
2018-08-17T11:31:53.325Z,41.00
2018-08-17T11:36:56.346Z,40.00
2018-08-17T11:41:59.369Z,39.40
2018-08-17T11:47:02.411Z,38.90
2018-08-17T11:52:05.414Z,39.40
2018-08-17T11:57:08.485Z,40.30
2018-08-17T12:02:12.192Z,40.00
2018-08-17T12:07:15.310Z,39.70
2018-08-17T12:12:18.287Z,39.40
2018-08-17T12:17:21.216Z,37.90
2018-08-17T12:22:24.192Z,38.80
2018-08-17T12:27:27.144Z,38.30
2018-08-17T12:32:30.233Z,37.70
2018-08-17T12:37:33.120Z,38.30
2018-08-17T12:42:37.264Z,39.10
2018-08-17T12:47:40.294Z,39.70
2018-08-17T12:52:43.286Z,39.60
2018-08-17T12:57:46.353Z,40.40
2018-08-17T13:02:49.347Z,39.10
2018-08-17T13:07:52.478Z,38.50
2018-08-17T13:13:01.194Z,36.70
2018-08-17T13:18:15.200Z,36.10
2018-08-17T13:23:18.297Z,35.40
2018-08-17T13:28:21.335Z,35.50
2018-08-17T13:33:24.347Z,35.30
2018-08-17T13:38:27.408Z,34.50
2018-08-17T13:43:30.486Z,33.50
2018-08-17T13:48:34.519Z,34.70
2018-08-17T13:53:37.484Z,35.40
2018-08-17T13:58:40.371Z,34.50
2018-08-17T14:03:43.369Z,33.10
2018-08-17T14:08:46.308Z,33.60
2018-08-17T14:13:49.282Z,35.90
2018-08-17T14:18:52.198Z,35.60
2018-08-17T14:23:55.243Z,35.70
2018-08-17T14:28:58.394Z,35.10
2018-08-17T14:34:01.503Z,35.70
2018-08-17T14:39:05.933Z,36.70
2018-08-17T14:44:08.969Z,39.20
2018-08-17T14:49:12.006Z,38.00
2018-08-17T14:54:15.062Z,39.70
2018-08-17T14:59:18.061Z,39.60
2018-08-17T15:04:21.132Z,38.80
2018-08-17T15:09:24.997Z,40.40
2018-08-17T15:14:28.024Z,39.40
2018-08-17T15:19:31.290Z,39.20
2018-08-17T15:24:34.228Z,42.00
2018-08-17T15:29:37.307Z,44.60
2018-08-17T15:34:40.520Z,45.00
2018-08-17T15:39:43.547Z,46.30
2018-08-17T15:44:46.596Z,46.70
2018-08-17T15:50:11.669Z,46.70
2018-08-17T15:55:14.953Z,48.00
2018-08-17T16:00:19.219Z,48.10
2018-08-17T16:05:22.208Z,49.10
2018-08-17T16:10:25.287Z,49.90
2018-08-17T16:15:28.237Z,49.90
2018-08-17T16:20:31.164Z,50.50
2018-08-17T16:25:34.146Z,50.20
2018-08-17T16:30:37.168Z,51.00
2018-08-17T16:35:40.202Z,50.00
2018-08-17T16:40:47.791Z,50.70
2018-08-17T16:45:50.851Z,49.60
2018-08-17T16:50:53.863Z,50.80
2018-08-17T16:55:56.964Z,51.50
2018-08-17T17:01:00.183Z,51.00
2018-08-17T17:06:04.794Z,51.40
2018-08-17T17:11:07.765Z,52.50
2018-08-17T17:16:10.769Z,53.10
2018-08-17T17:21:13.813Z,54.30
2018-08-17T17:26:16.788Z,54.70
2018-08-17T17:31:19.888Z,54.20
2018-08-17T17:36:22.875Z,54.00
2018-08-17T17:41:25.891Z,54.40
2018-08-17T17:46:28.936Z,54.70
2018-08-17T17:51:32.006Z,55.40
2018-08-17T17:56:35.047Z,54.90
2018-08-17T18:01:38.252Z,54.70
2018-08-17T18:06:41.340Z,55.10
2018-08-17T18:11:44.355Z,55.40
2018-08-17T18:16:47.443Z,55.60
2018-08-17T18:21:50.575Z,55.90
2018-08-17T18:26:53.676Z,56.20
2018-08-17T18:31:56.792Z,56.50
2018-08-17T18:36:59.907Z,56.80
2018-08-17T18:42:02.986Z,57.20
2018-08-17T18:47:05.997Z,57.80
2018-08-17T18:52:09.214Z,58.10
2018-08-17T18:57:12.288Z,59.00
2018-08-17T19:02:15.439Z,59.30
2018-08-17T19:07:18.555Z,59.30
2018-08-17T19:12:21.616Z,59.30
2018-08-17T19:17:32.075Z,59.00
2018-08-17T19:22:37.945Z,59.30
2018-08-17T19:27:41.582Z,59.10
2018-08-17T19:32:44.896Z,59.80
2018-08-17T19:37:48.652Z,60.20
2018-08-17T19:42:51.716Z,60.70
2018-08-17T19:47:54.815Z,60.40
2018-08-17T19:52:57.915Z,60.00
2018-08-17T19:58:00.871Z,60.10
2018-08-17T20:03:04.110Z,60.60
2018-08-17T20:08:07.224Z,60.70
2018-08-17T20:13:10.289Z,61.30
2018-08-17T20:18:13.447Z,62.30
2018-08-17T20:23:16.524Z,62.40
2018-08-17T20:28:19.649Z,62.30
2018-08-17T20:33:27.225Z,62.00
2018-08-17T20:38:30.452Z,61.70
2018-08-17T20:43:33.449Z,61.60
2018-08-17T20:48:36.475Z,61.40
2018-08-17T20:53:39.547Z,61.70
2018-08-17T20:58:42.593Z,62.40
2018-08-17T21:03:45.723Z,62.30
2018-08-17T21:08:48.889Z,62.10
2018-08-17T21:13:52.114Z,62.20
2018-08-17T21:18:55.164Z,62.00
2018-08-17T21:23:58.321Z,62.60
2018-08-17T21:29:03.649Z,62.80
2018-08-17T21:34:06.694Z,63.00
2018-08-17T21:39:11.817Z,62.90
2018-08-17T21:44:16.219Z,62.90
2018-08-17T21:49:20.092Z,63.70
2018-08-17T21:54:23.876Z,63.00
2018-08-17T21:59:35.295Z,63.10
2018-08-17T22:04:38.468Z,63.30
2018-08-17T22:09:42.517Z,63.60
2018-08-17T22:14:47.495Z,63.90
2018-08-17T22:19:50.416Z,64.00
2018-08-17T22:24:54.703Z,63.60
2018-08-17T22:29:58.671Z,64.20
2018-08-17T22:35:01.676Z,63.80
2018-08-17T22:40:04.944Z,63.70
2018-08-17T22:45:07.969Z,64.20
2018-08-17T22:50:10.971Z,64.40
2018-08-17T22:55:14.037Z,64.50
2018-08-17T23:00:23.453Z,65.30
2018-08-17T23:05:28.757Z,66.00
2018-08-17T23:10:31.799Z,66.80
2018-08-17T23:15:34.792Z,66.90
2018-08-17T23:20:37.756Z,67.00
2018-08-17T23:25:40.765Z,67.30
2018-08-17T23:30:43.771Z,67.40
2018-08-17T23:35:46.730Z,67.30
2018-08-17T23:40:49.725Z,67.10
2018-08-17T23:45:52.637Z,67.30
2018-08-17T23:50:55.689Z,67.90
2018-08-17T23:55:58.646Z,68.60
